Details for EasyJet at EGAA




Go Back


Latest METAR
Local Time

EGAA 180420Z 13003KT 9999 SCT042 03/01 Q1017

18/02/2018, 04:31:10

Description
Results
EasyJet Logo
Number of Pilots based at EGAA
1 Pilots Based here
Number of EasyJet Flights Departed from EGAA
5 Flights Departed
Number of EasyJet Flights Arrived at EGAA
6 Flights Arrived
Number of EasyJet Schedules Departing from EGAA
145 Schedules
Number of EasyJet Schedules Arriving at EGAA
146 Schedules
Number of EasyJet Schedules Departing from EGAA availible today
50 Schedules Today
Number of EasyJet Schedules Arriving at EGAA availible today
49 Schedules Today
Average Landing Rate at EGAA
-248 fpm
EasyJet Average Landing Rate at EGAA
-191 fpm
Total Fuel Purchased at EGAA by EasyJet
9,493.23 kgs / 20,928.77 lbs

Pilots Based at EGAA


Pilot ID
Pilot Name
Pilot Rank
No. of Flights
No. of Flying Hours
Dean Cullen
118
158.19
Content